Terminal Aerodrome Forecast
Issued by NWS Green Bay, WI

Home | Current Version | Previous Version | Text Only | Print | Product List | Glossary Off
Versions: 1 2 3 4 5 6 7 8 9 10 11 12 13 14 15 16 17 18 19 20 21 22 23 24 25 26 27 28 29 30 31 32 33 34 35 36 37 38 39 40 41 42 43 44 45 46 47 48 49 50

174
FTUS43 KGRB 201132
TAFGRB
TAF
KGRB 201132Z 2012/2112 04006KT 1/2SM -RA FG OVC002
      TEMPO 2012/2014 1SM -FZRAPL OVC004
     FM201400 06004KT 3/4SM -RA BR OVC003
     FM201800 08004KT 2SM BR OVC003
     FM210300 00000KT 1SM -DZ BR OVC003
     FM210700 VRB03KT 1/2SM -DZ FG OVC002=

USA.gov is the U.S. government's official web portal to all federal, state and local government web resources and services.